createdAt,value
2022-11-14T11:47:59.478Z,12.23
2022-11-14T11:50:45.576Z,9.98
2022-11-14T11:53:35.712Z,9.90
2022-11-14T11:56:35.151Z,9.68
2022-11-14T11:59:52.342Z,9.98
2022-11-14T12:02:31.808Z,9.77
2022-11-14T12:05:12.242Z,18.90
2022-11-14T12:08:00.676Z,13.40
2022-11-14T12:10:49.026Z,11.73
2022-11-14T12:13:54.810Z,11.63
2022-11-14T12:16:41.056Z,9.43
2022-11-14T12:19:19.711Z,9.48
2022-11-14T12:22:07.768Z,11.02
2022-11-14T12:24:47.552Z,13.68
2022-11-14T12:27:37.785Z,11.93
2022-11-14T12:30:06.042Z,11.50
2022-11-14T12:32:50.233Z,11.65
2022-11-14T12:35:46.999Z,12.25
2022-11-14T12:38:34.076Z,9.23
2022-11-14T12:41:12.368Z,8.43
2022-11-14T12:43:44.661Z,10.10
2022-11-14T12:46:52.690Z,8.60
2022-11-14T12:49:44.700Z,7.65
2022-11-14T12:52:46.890Z,4.15
2022-11-14T12:55:23.871Z,5.35
2022-11-14T12:58:14.916Z,3.35
2022-11-14T13:00:48.066Z,3.35
2022-11-14T13:03:42.362Z,2.72
2022-11-14T13:06:21.049Z,2.40
2022-11-14T13:09:03.864Z,2.60
2022-11-14T13:12:01.468Z,1.88
2022-11-14T13:18:06.224Z,1.70
2022-11-14T13:20:56.983Z,2.47
2022-11-14T13:23:28.656Z,3.80
2022-11-14T13:26:21.912Z,2.38
2022-11-14T13:29:19.989Z,1.50
2022-11-14T13:31:56.714Z,2.60
2022-11-14T13:34:43.140Z,1.67
2022-11-14T13:37:32.950Z,1.80
2022-11-14T13:40:25.569Z,2.22
2022-11-14T13:42:58.469Z,1.70
2022-11-14T13:49:05.600Z,2.38
2022-11-14T13:54:42.814Z,2.22
2022-11-14T14:00:53.037Z,2.10
2022-11-14T14:03:38.771Z,2.72
2022-11-14T14:06:33.170Z,3.17
2022-11-14T14:09:35.892Z,3.08
2022-11-14T14:12:28.552Z,2.22
2022-11-14T14:15:38.616Z,1.63
2022-11-14T14:18:44.240Z,2.17
2022-11-14T14:24:48.808Z,2.20
2022-11-14T14:30:35.031Z,2.30
2022-11-14T14:33:09.633Z,2.17
2022-11-14T14:35:53.763Z,3.88
2022-11-14T14:38:36.291Z,1.85
2022-11-14T14:41:05.748Z,3.95
2022-11-14T14:43:37.656Z,3.95
2022-11-14T14:46:07.136Z,3.78
2022-11-14T14:48:51.992Z,2.40
2022-11-14T14:51:45.377Z,1.80
2022-11-14T14:54:36.193Z,2.42
2022-11-14T16:59:09.140Z,6.97
2022-11-14T17:02:10.696Z,5.65
2022-11-14T17:07:50.522Z,8.13
2022-11-14T17:11:06.551Z,7.55
2022-11-14T17:17:21.359Z,6.13
2022-11-14T17:20:09.557Z,7.57
2022-11-14T18:05:03.564Z,19.42
2022-11-14T18:07:34.385Z,18.25
2022-11-14T18:13:45.374Z,15.35
2022-11-14T20:06:06.007Z,29.77
2022-11-14T20:08:57.843Z,30.00
2022-11-14T20:11:36.960Z,25.10
2022-11-14T20:14:20.621Z,25.77
2022-11-14T20:20:06.213Z,27.63
2022-11-14T20:22:56.946Z,26.48
2022-11-14T20:29:24.131Z,25.42
2022-11-14T20:31:59.737Z,36.97
2022-11-14T20:34:53.443Z,46.50
2022-11-14T20:37:31.786Z,26.75
2022-11-14T20:40:09.460Z,26.52
2022-11-14T20:42:48.427Z,29.80
2022-11-14T20:45:27.225Z,27.50
2022-11-14T20:48:01.666Z,27.83
2022-11-14T20:50:42.387Z,25.13
2022-11-14T20:53:14.628Z,26.03
2022-11-14T20:55:42.784Z,24.35
2022-11-14T20:58:16.161Z,25.88
2022-11-14T21:00:56.458Z,25.92
2022-11-14T21:03:26.747Z,27.73
2022-11-14T21:05:57.878Z,30.27
2022-11-14T21:08:31.807Z,32.40
2022-11-14T21:11:14.265Z,30.17
2022-11-14T21:21:01.001Z,26.70
2022-11-14T21:23:50.090Z,25.70
2022-11-14T21:26:23.455Z,23.30
2022-11-14T21:28:54.351Z,25.80
2022-11-14T21:37:56.901Z,29.10
2022-11-14T22:00:12.145Z,18.60
2022-11-14T22:03:15.033Z,18.33
2022-11-14T22:09:12.799Z,27.55
2022-11-14T22:15:02.171Z,29.92
2022-11-14T22:29:46.552Z,23.30
2022-11-14T22:32:20.981Z,26.13
2022-11-14T22:34:52.812Z,21.70
2022-11-14T22:37:32.821Z,28.33
2022-11-14T22:41:06.665Z,23.20
2022-11-14T22:43:38.752Z,23.88
2022-11-14T22:46:12.710Z,23.83
2022-11-14T22:49:05.416Z,20.58
2022-11-14T22:58:00.654Z,21.85
2022-11-14T23:00:47.963Z,24.10
2022-11-14T23:07:19.638Z,25.33
